Time;durP1;ratioP1;P1;durP2;ratioP2;P2;SDS_P1;SDS_P2;PMS_P1;PMS_P2;Temp;Humidity;BMP_temperature;BMP_pressure;BME280_temperature;BME280_humidity;BME280_pressure;Samples;Min_cycle;Max_cycle;Signal;HPM_P1;HPM_P2
2023/09/12 00:01:35;;;;;;;9.43;7.75;;;;;;;28.13;49.26;101410.00;4985846;28;20078;-34
2023/09/12 00:04:01;;;;;;;11.93;7.90;;;;;;;28.11;49.78;101407.47;4985590;28;20058;-34
2023/09/12 00:06:28;;;;;;;9.73;7.68;;;;;;;28.10;49.12;101404.94;4993030;28;20576;-34
2023/09/12 00:08:55;;;;;;;11.25;7.88;;;;;;;28.09;49.85;101395.09;4989553;28;20078;-34
2023/09/12 00:11:25;;;;;;;10.60;7.63;;;;;;;28.05;50.05;101398.22;4987538;28;20482;-34
2023/09/12 00:13:53;;;;;;;10.93;8.27;;;;;;;28.05;50.00;101398.22;4988164;28;21759;-34
2023/09/12 00:16:19;;;;;;;10.00;7.63;;;;;;;28.03;49.50;101394.88;4986309;28;20050;-34
2023/09/12 00:18:46;;;;;;;9.60;8.27;;;;;;;28.02;49.64;101397.81;4986689;28;20354;-34
2023/09/12 00:21:13;;;;;;;10.93;8.10;;;;;;;28.01;49.22;101396.13;4990942;28;20050;-34
2023/09/12 00:23:39;;;;;;;9.63;7.47;;;;;;;28.00;49.28;101395.28;4986031;28;20046;-34
2023/09/12 00:26:06;;;;;;;10.55;7.63;;;;;;;27.98;50.09;101391.94;4985652;28;20104;-34
2023/09/12 00:28:34;;;;;;;11.57;8.15;;;;;;;27.97;49.90;101390.25;4985475;28;20127;-34
2023/09/12 00:31:00;;;;;;;10.77;7.28;;;;;;;27.96;50.05;101380.41;4985683;28;20053;-34
2023/09/12 00:33:27;;;;;;;10.18;7.38;;;;;;;27.95;49.56;101375.19;4984322;28;20120;-34
2023/09/12 00:35:54;;;;;;;11.85;7.95;;;;;;;27.94;49.73;101381.66;4985226;28;20057;-34
2023/09/12 00:38:21;;;;;;;10.65;7.53;;;;;;;27.92;49.80;101381.88;4985406;28;20061;-34
2023/09/12 00:40:47;;;;;;;10.70;7.43;;;;;;;27.91;49.46;101380.19;4988828;28;20112;-34
2023/09/12 00:43:15;;;;;;;10.15;7.85;;;;;;;27.90;49.87;101385.84;4989594;28;20039;-34
2023/09/12 00:45:42;;;;;;;10.70;7.55;;;;;;;27.89;49.73;101387.72;4985928;28;20050;-34
2023/09/12 00:48:09;;;;;;;9.57;7.55;;;;;;;27.88;49.64;101369.69;4987573;28;20109;-34
2023/09/12 00:50:37;;;;;;;11.55;8.15;;;;;;;27.86;50.33;101385.44;4983329;28;20059;-34
2023/09/12 00:53:04;;;;;;;9.77;7.60;;;;;;;27.86;50.28;101381.84;4985100;28;20046;-34
2023/09/12 00:55:32;;;;;;;9.52;6.78;;;;;;;27.85;49.90;101386.44;4987330;28;20233;-34
2023/09/12 00:58:00;;;;;;;10.18;7.50;;;;;;;27.83;49.71;101372.22;4985857;28;20137;-34
2023/09/12 01:00:27;;;;;;;9.38;7.50;;;;;;;27.83;49.32;101379.56;4986905;28;20109;-34
2023/09/12 01:02:54;;;;;;;9.52;6.90;;;;;;;27.81;49.96;101374.28;4984949;28;20095;-34
2023/09/12 01:05:22;;;;;;;11.50;7.38;;;;;;;27.80;49.74;101378.06;4982910;28;20053;-34
2023/09/12 01:07:49;;;;;;;9.02;6.57;;;;;;;27.78;50.33;101383.72;4984147;28;20374;-34
2023/09/12 01:10:15;;;;;;;8.32;7.15;;;;;;;27.78;50.27;101377.44;4988244;28;20125;-34
2023/09/12 01:12:42;;;;;;;10.10;7.50;;;;;;;27.76;49.97;101383.09;4985380;28;20050;-34
2023/09/12 01:15:13;;;;;;;9.50;7.03;;;;;;;27.75;50.36;101378.69;4986075;28;20056;-34
2023/09/12 01:17:42;;;;;;;9.70;7.13;;;;;;;27.73;49.79;101375.31;4991595;28;20165;-34
2023/09/12 01:20:15;;;;;;;7.45;6.32;;;;;;;27.72;50.37;101373.63;4983541;28;20415;-34
2023/09/12 01:22:48;;;;;;;;;;;;;;;27.71;49.79;101379.28;4979456;28;20047;-34
2023/09/12 01:25:26;;;;;;;8.25;6.60;;;;;;;27.71;50.27;101380.13;4985657;28;19926;-34
2023/09/12 01:27:57;;;;;;;8.57;6.85;;;;;;;27.71;50.36;101380.13;4982451;28;20042;-34
2023/09/12 01:30:27;;;;;;;9.57;7.45;;;;;;;27.69;50.12;101379.47;4984611;28;20108;-34
2023/09/12 01:32:55;;;;;;;8.88;7.07;;;;;;;27.68;50.02;101372.34;4990537;28;20138;-34
2023/09/12 01:35:21;;;;;;;8.13;6.43;;;;;;;27.67;50.45;101378.00;4985716;28;20061;-34
2023/09/12 01:37:48;;;;;;;9.18;6.85;;;;;;;27.66;50.36;101381.75;4986452;28;20113;-34
2023/09/12 01:40:16;;;;;;;9.18;6.65;;;;;;;27.64;50.24;101378.41;4983394;28;20142;-34
2023/09/12 01:42:46;;;;;;;8.50;6.57;;;;;;;27.63;50.24;101382.19;4981957;28;20078;-34
2023/09/12 01:45:18;;;;;;;8.80;6.57;;;;;;;27.62;50.65;101377.75;4984650;28;20058;-34
2023/09/12 01:47:50;;;;;;;9.20;6.90;;;;;;;27.61;50.32;101379.66;4984148;28;20435;-34
2023/09/12 01:50:18;;;;;;;9.05;6.97;;;;;;;27.60;50.12;101377.13;4988511;28;20205;-34
2023/09/12 01:52:44;;;;;;;8.65;6.60;;;;;;;27.60;49.89;101385.31;4985569;28;20113;-34
2023/09/12 01:55:11;;;;;;;8.88;6.47;;;;;;;27.58;49.80;101388.25;4981664;28;20080;-34
2023/09/12 01:57:38;;;;;;;10.10;6.88;;;;;;;27.58;49.89;101392.81;4984613;28;20141;-34
2023/09/12 02:00:06;;;;;;;9.55;6.30;;;;;;;27.55;50.74;101386.75;4985827;28;20077;-34
2023/09/12 02:02:32;;;;;;;7.50;6.18;;;;;;;27.54;50.22;101395.97;4984915;28;20046;-34
2023/09/12 02:05:31;;;;;;;8.70;6.55;;;;;;;27.54;49.93;101385.09;4985030;28;20132;-34
2023/09/12 02:08:01;;;;;;;9.25;6.63;;;;;;;27.53;50.60;101383.38;4982121;28;20050;-34
2023/09/12 02:10:28;;;;;;;8.52;6.15;;;;;;;27.52;50.22;101380.88;4980687;28;20054;-34
2023/09/12 02:12:54;;;;;;;7.63;6.47;;;;;;;27.51;50.05;101369.16;4983088;28;20046;-34
2023/09/12 02:15:21;;;;;;;9.75;6.68;;;;;;;27.51;50.28;101377.31;4982245;28;20054;-34
2023/09/12 02:17:50;;;;;;;8.07;6.10;;;;;;;27.50;50.31;101381.09;4978773;28;20050;-34
2023/09/12 02:20:18;;;;;;;7.55;6.13;;;;;;;27.50;50.42;101392.00;4987640;28;20053;-34
2023/09/12 02:22:45;;;;;;;6.82;5.97;;;;;;;27.49;50.61;101390.28;4984536;28;20046;-34
2023/09/12 02:25:11;;;;;;;7.70;5.68;;;;;;;27.48;50.81;101391.34;4986695;28;20496;-35
2023/09/12 02:27:38;;;;;;;8.23;6.30;;;;;;;27.49;50.32;101389.44;4983801;28;20509;-34
2023/09/12 02:30:05;;;;;;;6.97;5.75;;;;;;;27.47;50.28;101389.66;4981642;28;20062;-34
2023/09/12 02:32:32;;;;;;;7.78;5.75;;;;;;;27.46;50.10;101388.00;4983221;28;20054;-34
2023/09/12 02:34:59;;;;;;;6.68;5.78;;;;;;;27.45;50.42;101382.72;4984485;28;20379;-34
2023/09/12 02:37:26;;;;;;;6.60;5.75;;;;;;;27.44;50.49;101387.34;4978799;28;20050;-34
2023/09/12 02:39:52;;;;;;;7.07;5.60;;;;;;;27.43;50.13;101376.66;4984546;28;20081;-34
2023/09/12 02:42:19;;;;;;;7.13;5.78;;;;;;;27.41;50.46;101385.03;4981694;28;20050;-34
2023/09/12 02:44:46;;;;;;;7.78;5.85;;;;;;;27.41;50.06;101381.47;4986108;28;20081;-34
2023/09/12 02:47:12;;;;;;;7.10;5.82;;;;;;;27.40;50.55;101377.91;4981844;28;20046;-34
2023/09/12 02:49:39;;;;;;;7.93;6.15;;;;;;;27.39;50.65;101378.13;4981461;28;20078;-34
2023/09/12 02:52:05;;;;;;;6.03;4.88;;;;;;;27.39;50.79;101386.28;4985341;28;20446;-34
2023/09/12 02:54:32;;;;;;;7.63;6.30;;;;;;;27.37;50.59;101378.31;4984302;28;20054;-34
2023/09/12 02:56:58;;;;;;;7.30;5.82;;;;;;;27.36;50.19;101368.47;4987477;28;20085;-34
2023/09/12 02:59:25;;;;;;;7.10;5.80;;;;;;;27.37;50.20;101372.03;4985540;28;20481;-34
2023/09/12 03:01:52;;;;;;;7.30;5.63;;;;;;;27.36;50.11;101376.63;4986407;28;20049;-34
2023/09/12 03:04:18;;;;;;;6.57;5.25;;;;;;;27.35;50.57;101377.69;4981444;28;20054;-34
2023/09/12 03:06:45;;;;;;;6.97;5.35;;;;;;;27.35;50.25;101374.97;4986791;28;20504;-34
2023/09/12 03:09:13;;;;;;;8.25;6.25;;;;;;;27.34;50.72;101377.88;4985293;28;20086;-34
2023/09/12 03:11:40;;;;;;;9.85;6.35;;;;;;;27.33;50.56;101379.75;4984916;28;20046;-35
2023/09/12 03:14:07;;;;;;;7.60;5.40;;;;;;;27.32;50.11;101378.06;4983461;28;20073;-34
2023/09/12 03:16:33;;;;;;;7.18;6.00;;;;;;;27.31;50.92;101373.69;4982165;28;20050;-34
2023/09/12 03:19:02;;;;;;;7.85;6.00;;;;;;;27.30;50.39;101370.13;4984971;28;20048;-34
2023/09/12 03:21:28;;;;;;;6.03;5.22;;;;;;;27.29;50.22;101362.97;4982061;28;20105;-34
2023/09/12 03:23:55;;;;;;;7.60;5.50;;;;;;;27.29;50.70;101362.13;4982564;28;20128;-34
2023/09/12 03:26:22;;;;;;;7.15;5.43;;;;;;;27.30;50.29;101361.13;4983443;28;20473;-34
2023/09/12 03:28:51;;;;;;;8.50;6.95;;;;;;;27.28;50.41;101358.59;4987671;28;20050;-35
2023/09/12 03:31:18;;;;;;;7.30;5.50;;;;;;;27.28;50.31;101366.75;4989567;28;20136;-34
2023/09/12 03:33:49;;;;;;;6.93;5.40;;;;;;;27.27;50.77;101359.63;4984434;28;20049;-34
2023/09/12 03:36:17;;;;;;;6.05;4.80;;;;;;;27.27;50.78;101362.34;4987434;28;20050;-34
2023/09/12 03:38:44;;;;;;;7.28;6.03;;;;;;;27.26;50.93;101363.41;4989046;28;20056;-34
2023/09/12 03:41:10;;;;;;;7.38;5.55;;;;;;;27.27;50.88;101369.69;4986230;28;20054;-34
2023/09/12 03:43:40;;;;;;;7.22;5.13;;;;;;;27.26;50.51;101368.00;4984627;28;20054;-34
2023/09/12 03:46:06;;;;;;;7.25;6.15;;;;;;;27.25;50.57;101377.19;4991157;28;20125;-34
2023/09/12 03:48:36;;;;;;;9.23;5.57;;;;;;;27.24;50.53;101370.91;4988084;28;20043;-34
2023/09/12 03:51:03;;;;;;;6.45;5.15;;;;;;;27.24;50.48;101373.66;4989862;28;20108;-34
2023/09/12 03:53:30;;;;;;;7.45;5.35;;;;;;;27.24;50.75;101372.81;4981852;28;20390;-34
2023/09/12 03:55:58;;;;;;;6.28;4.90;;;;;;;27.23;50.76;101374.69;4985442;28;20129;-34
2023/09/12 03:58:24;;;;;;;6.95;5.43;;;;;;;27.22;50.85;101386.63;4989702;28;20094;-34
2023/09/12 04:00:51;;;;;;;6.43;5.18;;;;;;;27.22;50.64;101377.63;4986726;28;20101;-34
2023/09/12 04:03:18;;;;;;;6.38;5.10;;;;;;;27.22;50.86;101374.91;4984230;28;20046;-34
2023/09/12 04:05:47;;;;;;;7.65;4.90;;;;;;;27.20;50.81;101369.66;4984620;28;20914;-34
2023/09/12 04:08:13;;;;;;;6.25;4.95;;;;;;;27.20;50.89;101371.53;4984959;28;20130;-34
2023/09/12 04:10:40;;;;;;;5.65;4.53;;;;;;;27.19;50.96;101367.97;4984721;28;20133;-34
2023/09/12 04:13:07;;;;;;;5.63;4.93;;;;;;;27.19;50.79;101367.13;4986935;28;20077;-34
2023/09/12 04:15:34;;;;;;;6.25;5.18;;;;;;;27.19;50.23;101359.81;4984736;28;20137;-34
2023/09/12 04:18:00;;;;;;;5.95;4.95;;;;;;;27.18;51.01;101352.69;4986883;28;20043;-34
2023/09/12 04:20:27;;;;;;;5.75;5.10;;;;;;;27.17;50.37;101352.88;4991779;28;20048;-34
2023/09/12 04:22:54;;;;;;;5.75;4.72;;;;;;;27.17;50.87;101353.72;4985138;28;20083;-34
2023/09/12 04:25:20;;;;;;;8.88;4.97;;;;;;;27.17;50.87;101359.16;4990732;28;20101;-34
2023/09/12 04:27:47;;;;;;;5.88;4.78;;;;;;;27.17;50.40;101358.31;4985319;28;20054;-35
2023/09/12 04:30:14;;;;;;;8.30;5.03;;;;;;;27.16;50.34;101359.38;4986254;28;20054;-34
2023/09/12 04:32:41;;;;;;;5.68;4.40;;;;;;;27.15;50.50;101353.09;4987362;28;20046;-34
2023/09/12 04:35:07;;;;;;;5.53;4.70;;;;;;;27.15;50.69;101353.09;4991239;28;20050;-34
2023/09/12 04:37:35;;;;;;;5.82;4.88;;;;;;;27.15;50.59;101352.25;4987354;28;20496;-34
2023/09/12 04:40:01;;;;;;;7.03;4.85;;;;;;;27.13;50.29;101347.00;4988196;28;20090;-34
2023/09/12 04:42:28;;;;;;;7.30;5.35;;;;;;;27.14;50.40;101350.59;4983566;28;20140;-34
2023/09/12 04:44:55;;;;;;;5.30;4.60;;;;;;;27.15;50.64;101349.53;4984197;28;20050;-34
2023/09/12 04:47:22;;;;;;;6.43;5.05;;;;;;;27.14;50.58;101350.59;4983807;28;20073;-34
2023/09/12 04:49:48;;;;;;;6.10;4.63;;;;;;;27.12;50.65;101353.50;4983207;28;20097;-34
2023/09/12 04:52:15;;;;;;;5.78;4.88;;;;;;;27.13;50.64;101354.31;4986622;28;20058;-34
2023/09/12 04:54:42;;;;;;;6.28;5.05;;;;;;;27.12;50.78;101355.38;4986958;28;20125;-34
2023/09/12 04:57:08;;;;;;;5.90;4.85;;;;;;;27.12;50.50;101347.22;4984795;28;20054;-34
2023/09/12 04:59:35;;;;;;;5.72;4.75;;;;;;;27.12;50.49;101352.66;4984824;28;20086;-34
2023/09/12 05:02:02;;;;;;;5.97;4.65;;;;;;;27.10;50.85;101352.88;4988276;28;20177;-34
2023/09/12 05:04:29;;;;;;;6.07;4.45;;;;;;;27.09;50.80;101342.97;4986045;28;20074;-34
2023/09/12 05:06:55;;;;;;;6.88;5.38;;;;;;;27.08;50.59;101350.28;4984681;28;20051;-34
2023/09/12 05:09:22;;;;;;;5.22;4.43;;;;;;;27.07;50.35;101348.63;4984700;28;20078;-34
2023/09/12 05:11:48;;;;;;;4.55;4.13;;;;;;;27.07;50.52;101358.66;4982745;28;20074;-34
2023/09/12 05:14:15;;;;;;;5.88;5.05;;;;;;;27.07;50.63;101358.66;4985259;28;20042;-34
2023/09/12 05:16:42;;;;;;;6.07;4.90;;;;;;;27.06;50.46;101354.28;4983124;28;20058;-34
2023/09/12 05:19:08;;;;;;;5.60;4.85;;;;;;;27.05;50.54;101353.41;4985448;28;20062;-34
2023/09/12 05:21:35;;;;;;;6.05;4.72;;;;;;;27.05;50.80;101347.13;4984363;28;20051;-34
2023/09/12 05:24:02;;;;;;;5.95;4.82;;;;;;;27.03;50.25;101344.63;4982832;28;20342;-34
2023/09/12 05:26:28;;;;;;;7.32;4.38;;;;;;;27.04;51.05;101351.75;4987793;28;20402;-34
2023/09/12 05:28:55;;;;;;;5.35;4.18;;;;;;;27.02;50.59;101348.41;4986576;28;20431;-34
2023/09/12 05:31:22;;;;;;;4.72;3.92;;;;;;;27.02;50.61;101348.41;4988954;28;20072;-34
2023/09/12 05:33:49;;;;;;;5.72;4.68;;;;;;;27.01;50.62;101357.56;4985041;28;20484;-34
2023/09/12 05:36:15;;;;;;;6.50;4.55;;;;;;;27.01;50.83;101359.47;4982613;28;20363;-34
2023/09/12 05:38:42;;;;;;;4.68;4.03;;;;;;;27.01;50.95;101368.47;4986024;28;20050;-34
2023/09/12 05:41:09;;;;;;;5.55;4.50;;;;;;;27.01;50.98;101373.06;4981980;28;20347;-34
2023/09/12 05:43:36;;;;;;;5.80;4.10;;;;;;;27.00;50.36;101376.84;4987396;28;20110;-34
2023/09/12 05:46:02;;;;;;;7.10;4.65;;;;;;;27.00;50.98;101377.66;4981484;28;20078;-34
2023/09/12 05:48:29;;;;;;;5.32;4.30;;;;;;;27.00;50.48;101385.00;4980686;28;20976;-34
2023/09/12 05:50:55;;;;;;;6.45;4.22;;;;;;;26.99;50.80;101386.03;4983073;28;20050;-34
2023/09/12 05:53:22;;;;;;;5.57;4.03;;;;;;;26.99;50.75;101381.44;5011736;28;20427;-34
2023/09/12 05:55:49;;;;;;;5.40;4.25;;;;;;;26.99;50.83;101386.03;5012024;28;20053;-34
2023/09/12 05:58:15;;;;;;;4.53;3.85;;;;;;;26.98;50.62;101385.22;4984771;28;20081;-34
2023/09/12 06:00:42;;;;;;;3.70;3.20;;;;;;;26.98;50.67;101376.22;4983722;28;20054;-34
2023/09/12 06:03:08;;;;;;;5.00;3.83;;;;;;;26.99;50.58;101373.28;4981224;28;20320;-34
2023/09/12 06:05:35;;;;;;;6.03;4.68;;;;;;;26.98;50.53;101368.88;4989182;28;20132;-34
2023/09/12 06:08:03;;;;;;;5.25;3.80;;;;;;;27.00;50.54;101374.13;4989853;28;20050;-35
2023/09/12 06:10:30;;;;;;;4.40;4.00;;;;;;;26.99;50.83;101376.00;4984509;28;20100;-34
2023/09/12 06:12:57;;;;;;;6.47;4.32;;;;;;;26.99;50.59;101378.72;4987178;28;20504;-34
2023/09/12 06:15:23;;;;;;;6.60;4.40;;;;;;;27.00;50.78;101383.13;4980799;28;20050;-34
2023/09/12 06:17:50;;;;;;;5.65;4.32;;;;;;;26.99;50.61;101381.44;4982156;28;20050;-34
2023/09/12 06:20:17;;;;;;;4.55;3.75;;;;;;;27.01;51.02;101376.63;4982388;28;20181;-34
2023/09/12 06:22:43;;;;;;;8.50;4.82;;;;;;;27.01;50.80;101378.50;4984114;28;20442;-34
2023/09/12 06:25:10;;;;;;;6.15;5.20;;;;;;;27.00;51.15;101377.66;4984810;28;20054;-34
2023/09/12 06:27:36;;;;;;;7.25;5.53;;;;;;;27.01;50.61;101387.50;4977594;28;20122;-34
2023/09/12 06:30:03;;;;;;;9.25;6.75;;;;;;;27.02;50.82;101389.22;4979505;28;20077;-34
2023/09/12 06:32:30;;;;;;;9.50;6.57;;;;;;;27.03;50.88;101388.16;4983463;28;20050;-34
2023/09/12 06:34:57;;;;;;;8.80;6.35;;;;;;;27.03;50.99;101392.75;4982178;28;20078;-34
2023/09/12 06:37:23;;;;;;;9.85;6.25;;;;;;;27.03;51.18;101396.31;4989983;28;20058;-34
2023/09/12 06:39:50;;;;;;;8.20;6.28;;;;;;;27.03;51.13;101395.47;4983144;28;20046;-34
2023/09/12 06:42:17;;;;;;;9.80;6.47;;;;;;;27.03;51.07;101404.47;4982268;28;20046;-34
2023/09/12 06:44:44;;;;;;;7.97;6.13;;;;;;;27.02;50.59;101396.53;4985161;28;20039;-34
2023/09/12 06:47:10;;;;;;;9.98;6.00;;;;;;;27.03;51.07;101404.47;4984236;28;20086;-34
2023/09/12 06:49:37;;;;;;;10.02;6.38;;;;;;;27.03;50.91;101403.66;4982873;28;20057;-34
2023/09/12 06:52:04;;;;;;;8.13;6.00;;;;;;;27.02;50.70;101404.69;4985506;28;20054;-34
2023/09/12 06:54:32;;;;;;;8.93;6.05;;;;;;;27.01;50.42;101392.94;4987227;28;20054;-34
2023/09/12 06:56:59;;;;;;;9.88;6.28;;;;;;;27.02;51.08;101407.41;4983400;28;20741;-35
2023/09/12 06:59:26;;;;;;;9.68;6.28;;;;;;;27.01;50.58;101405.72;4987174;28;20054;-34
2023/09/12 07:01:53;;;;;;;8.57;6.43;;;;;;;27.01;50.53;101406.56;4979608;28;20050;-34
2023/09/12 07:04:19;;;;;;;8.77;6.30;;;;;;;27.02;51.13;101405.53;4976463;28;20070;-34
2023/09/12 07:06:46;;;;;;;11.48;6.90;;;;;;;27.01;50.89;101398.38;4982877;28;20129;-34
2023/09/12 07:09:14;;;;;;;12.35;6.65;;;;;;;27.01;50.97;101394.84;4981698;28;20078;-34
2023/09/12 07:11:41;;;;;;;9.88;6.70;;;;;;;27.01;50.77;101395.66;4979005;28;20078;-34
2023/09/12 07:14:09;;;;;;;9.43;7.03;;;;;;;27.01;50.66;101382.06;4980342;28;20046;-34
2023/09/12 07:16:37;;;;;;;11.93;7.60;;;;;;;27.03;50.96;101395.47;4981357;28;20093;-34
2023/09/12 07:19:03;;;;;;;11.20;7.50;;;;;;;27.03;50.63;101388.16;4983114;28;20504;-34
2023/09/12 07:21:32;;;;;;;11.40;8.05;;;;;;;27.04;51.23;101392.56;4981984;28;20118;-34
2023/09/12 07:23:58;;;;;;;12.60;7.75;;;;;;;27.06;51.02;101392.38;4980995;28;20046;-34
2023/09/12 07:26:25;;;;;;;11.27;7.65;;;;;;;27.07;51.17;101392.16;4983188;28;20047;-34
2023/09/12 07:28:54;;;;;;;10.57;7.25;;;;;;;27.08;51.22;101393.00;4983807;28;20126;-34
2023/09/12 07:31:21;;;;;;;10.98;7.78;;;;;;;27.08;50.83;101393.84;4985955;28;20050;-34
2023/09/12 07:33:47;;;;;;;10.05;7.07;;;;;;;27.08;51.17;101393.84;4979434;28;20046;-34
2023/09/12 07:36:14;;;;;;;9.45;6.60;;;;;;;27.09;51.11;101397.38;4983214;28;20138;-34
2023/09/12 07:38:42;;;;;;;10.52;7.43;;;;;;;27.09;51.29;101402.84;4984020;28;20267;-34
2023/09/12 07:41:09;;;;;;;11.77;7.03;;;;;;;27.11;50.88;101406.25;4987700;28;20086;-35
2023/09/12 07:43:36;;;;;;;11.15;7.22;;;;;;;27.12;51.12;101407.91;4981467;28;20129;-34
2023/09/12 07:46:03;;;;;;;10.77;7.13;;;;;;;27.13;50.67;101401.41;4986067;28;20080;-34
2023/09/12 07:48:29;;;;;;;9.27;6.57;;;;;;;27.14;50.86;101405.84;4979004;28;20518;-34
2023/09/12 07:50:56;;;;;;;10.98;7.13;;;;;;;27.15;50.71;101402.06;4981927;28;20053;-34
2023/09/12 07:53:23;;;;;;;9.43;6.88;;;;;;;27.15;51.04;101407.53;4979239;28;20070;-34
2023/09/12 07:55:50;;;;;;;10.48;6.70;;;;;;;27.15;50.79;101409.41;4982587;28;20047;-33
2023/09/12 07:58:21;;;;;;;10.70;6.85;;;;;;;27.16;50.99;101411.91;4984431;28;20050;-34
2023/09/12 08:00:48;;;;;;;9.98;6.80;;;;;;;27.18;50.80;101411.72;4984131;28;20129;-33
2023/09/12 08:03:15;;;;;;;10.73;7.63;;;;;;;27.17;51.01;101424.47;4979000;28;20051;-34
2023/09/12 08:05:42;;;;;;;9.73;6.57;;;;;;;27.17;50.92;101424.47;4981846;28;20058;-33
2023/09/12 08:08:09;;;;;;;12.13;7.43;;;;;;;27.19;50.48;101421.56;4978077;28;20061;-33
2023/09/12 08:10:36;;;;;;;9.73;7.38;;;;;;;27.19;50.64;101429.72;4986286;28;20050;-34
2023/09/12 08:13:03;;;;;;;13.52;9.18;;;;;;;27.19;50.89;101430.56;4983689;28;20129;-33
2023/09/12 08:15:29;;;;;;;11.20;7.57;;;;;;;27.20;50.84;101428.69;4985430;28;20120;-34
2023/09/12 08:17:56;;;;;;;13.18;7.72;;;;;;;27.21;50.55;101428.47;4980994;28;20081;-34
2023/09/12 08:20:23;;;;;;;10.80;7.75;;;;;;;27.21;50.82;101435.81;4986345;28;20072;-34
2023/09/12 08:22:49;;;;;;;13.93;8.48;;;;;;;27.22;50.53;101437.50;4984520;28;20069;-33
2023/09/12 08:25:16;;;;;;;13.73;8.00;;;;;;;27.21;51.04;101441.25;4985046;28;20509;-33
2023/09/12 08:27:43;;;;;;;13.02;8.45;;;;;;;27.23;50.84;101436.47;4989948;28;20054;-33
2023/09/12 08:30:12;;;;;;;12.80;8.35;;;;;;;27.22;51.06;101438.34;4981980;28;20053;-34
2023/09/12 08:32:43;;;;;;;11.68;8.13;;;;;;;27.23;50.87;101434.56;4989113;28;20319;-34
2023/09/12 08:35:14;;;;;;;12.07;7.88;;;;;;;27.24;50.76;101441.69;4985908;28;20062;-33
2023/09/12 08:37:41;;;;;;;10.50;7.90;;;;;;;27.26;50.57;101438.78;4987831;28;20074;-33
2023/09/12 08:40:10;;;;;;;9.80;7.53;;;;;;;27.27;50.88;101437.72;4988939;28;20057;-34
2023/09/12 08:42:42;;;;;;;12.88;8.52;;;;;;;27.28;50.64;101442.97;4986843;28;20096;-34
2023/09/12 08:45:13;;;;;;;11.77;8.20;;;;;;;27.28;50.54;101439.41;4989818;28;20076;-34
2023/09/12 08:47:42;;;;;;;11.05;8.25;;;;;;;27.29;50.47;101443.81;4987874;28;20137;-34
2023/09/12 08:50:14;;;;;;;12.10;8.50;;;;;;;27.30;50.73;101448.22;4985040;28;20043;-34
2023/09/12 08:52:44;;;;;;;13.93;8.88;;;;;;;27.31;50.63;101447.19;4980035;28;20058;-33
2023/09/12 08:55:37;;;;;;;15.30;9.57;;;;;;;27.31;51.07;101450.75;4986327;28;20063;-33
2023/09/12 08:58:04;;;;;;;;;;;;;;;27.33;51.19;101452.41;4986335;28;20086;-34
2023/09/12 09:00:31;;;;;;;14.25;10.18;;;;;;;27.36;50.57;101441.97;4987122;28;19973;-34
2023/09/12 09:02:59;;;;;;;15.05;9.55;;;;;;;27.35;50.35;101448.47;4983713;28;20050;-34
2023/09/12 09:05:27;;;;;;;14.68;9.48;;;;;;;27.36;50.48;101439.25;4981715;28;20070;-34
2023/09/12 09:07:55;;;;;;;14.50;10.10;;;;;;;27.36;50.75;101436.53;4984166;28;20051;-34
2023/09/12 09:10:22;;;;;;;13.93;9.23;;;;;;;27.36;50.64;101441.97;4988401;28;20121;-34
2023/09/12 09:13:09;;;;;;;15.27;9.50;;;;;;;27.39;50.50;101451.63;4991821;28;20061;-34
2023/09/12 09:15:41;;;;;;;14.45;10.05;;;;;;;27.39;50.37;101444.28;4987173;28;20050;-34
2023/09/12 09:18:10;;;;;;;16.33;10.73;;;;;;;27.40;50.48;101432.34;4984128;28;20082;-34
2023/09/12 09:20:38;;;;;;;15.32;10.68;;;;;;;27.44;50.54;101440.97;4982540;28;20058;-33
2023/09/12 09:23:08;;;;;;;15.63;10.73;;;;;;;27.46;50.89;101444.34;4982028;28;20051;-34
2023/09/12 09:25:39;;;;;;;59.40;33.25;;;;;;;27.44;51.32;101447.25;4983774;28;20421;-33
2023/09/12 09:28:16;;;;;;;49.45;28.38;;;;;;;27.38;52.42;101448.06;4980571;28;20051;-33
2023/09/12 09:30:45;;;;;;;45.95;26.35;;;;;;;27.37;52.23;101443.63;4986188;28;20051;-34
2023/09/12 09:33:13;;;;;;;53.17;31.33;;;;;;;27.36;52.25;101450.13;4986262;28;20065;-34
2023/09/12 09:35:45;;;;;;;53.50;29.90;;;;;;;27.35;52.95;101451.19;4985147;28;20158;-34
2023/09/12 09:38:16;;;;;;;51.10;30.30;;;;;;;27.35;52.59;101450.34;4984284;28;20497;-33
2023/09/12 09:40:44;;;;;;;44.40;27.13;;;;;;;27.36;52.54;101450.13;4986859;28;20497;-34
2023/09/12 09:43:11;;;;;;;48.67;27.45;;;;;;;27.37;53.24;101453.69;4985766;28;20054;-34
2023/09/12 09:45:45;;;;;;;45.60;27.20;;;;;;;27.38;52.97;101449.91;4988043;28;20693;-33
2023/09/12 09:48:21;;;;;;;40.78;25.38;;;;;;;27.37;53.35;101446.34;4984668;28;20525;-33
2023/09/12 09:50:48;;;;;;;39.22;24.17;;;;;;;27.39;52.18;101440.72;4984136;28;20346;-34
2023/09/12 09:53:16;;;;;;;42.50;23.83;;;;;;;27.40;52.75;101447.84;4987774;28;20648;-33
2023/09/12 09:55:43;;;;;;;44.22;25.20;;;;;;;27.43;52.62;101442.00;4986219;28;20054;-33
2023/09/12 09:58:16;;;;;;;42.10;23.52;;;;;;;27.44;53.15;101457.28;4983915;28;20075;-33
2023/09/12 10:00:44;;;;;;;39.58;22.25;;;;;;;27.45;52.82;101450.81;4979765;28;20137;-34
2023/09/12 10:03:12;;;;;;;57.63;26.42;;;;;;;27.45;52.45;101450.81;4980843;28;20053;-34
2023/09/12 10:05:40;;;;;;;51.75;26.27;;;;;;;27.48;52.74;101462.13;4978402;28;20093;-34
2023/09/12 10:08:10;;;;;;;51.35;25.80;;;;;;;27.50;52.57;101451.06;4980081;28;20050;-34
2023/09/12 10:10:38;;;;;;;49.08;25.88;;;;;;;27.50;52.75;101460.06;4979485;28;20525;-34
2023/09/12 10:13:06;;;;;;;48.53;24.42;;;;;;;27.51;53.12;101455.44;4978710;28;20061;-34
2023/09/12 10:15:36;;;;;;;42.10;24.27;;;;;;;27.50;52.47;101470.13;4979149;28;20039;-34
2023/09/12 10:18:09;;;;;;;48.90;24.17;;;;;;;27.47;52.81;101460.47;4986723;28;20450;-34
2023/09/12 10:20:54;;;;;;;43.33;23.33;;;;;;;27.45;52.86;101454.38;4980887;28;20154;-34
2023/09/12 10:23:43;;;;;;;44.27;24.10;;;;;;;27.44;53.42;101460.84;4981445;28;20464;-34
2023/09/12 10:26:13;;;;;;;39.92;24.77;;;;;;;27.43;53.45;101456.47;4984314;28;20054;-34
2023/09/12 10:28:43;;;;;;;39.20;25.20;;;;;;;27.44;53.46;101455.41;4984445;28;20047;-34
2023/09/12 10:31:12;;;;;;;39.15;24.80;;;;;;;27.44;52.74;101458.13;4987831;28;20057;-34
2023/09/12 10:33:39;;;;;;;40.70;24.08;;;;;;;27.42;52.85;101457.50;4979575;28;20434;-34
2023/09/12 10:36:08;;;;;;;38.92;23.88;;;;;;;27.42;53.62;101462.97;4984458;28;20090;-34
2023/09/12 10:38:44;;;;;;;38.65;24.40;;;;;;;27.41;53.27;101454.97;4981126;28;20078;-34
2023/09/12 10:41:15;;;;;;;40.70;23.35;;;;;;;27.39;52.76;101452.47;4984484;28;20090;-34
2023/09/12 10:43:46;;;;;;;37.60;22.70;;;;;;;27.42;53.08;101451.19;4980092;28;20065;-34
2023/09/12 10:46:13;;;;;;;34.10;21.48;;;;;;;27.45;53.10;101450.81;5015145;28;20497;-34
2023/09/12 10:48:40;;;;;;;35.33;22.33;;;;;;;27.48;52.49;101461.28;4981426;28;20279;-34
2023/09/12 10:51:09;;;;;;;38.33;22.15;;;;;;;27.49;52.54;101455.63;4980601;28;20057;-35
2023/09/12 10:53:36;;;;;;;40.80;23.67;;;;;;;27.51;52.46;101455.44;4983896;28;20046;-34
2023/09/12 10:56:29;;;;;;;44.47;27.08;;;;;;;27.52;52.62;101451.69;4975967;28;20438;-34
2023/09/12 10:59:06;;;;;;;36.38;22.13;;;;;;;27.54;53.02;101444.16;4976154;28;20051;-34
2023/09/12 11:01:34;;;;;;;34.78;21.33;;;;;;;27.54;52.53;101445.00;4984057;28;20132;-34
2023/09/12 11:04:19;;;;;;;35.78;24.30;;;;;;;27.52;53.13;101436.19;4980985;28;20101;-34
2023/09/12 11:06:47;;;;;;;42.35;25.63;;;;;;;27.55;53.06;101440.41;4985263;28;20058;-34
2023/09/12 11:09:14;;;;;;;44.25;26.08;;;;;;;27.52;53.13;101430.72;4982987;28;20354;-34
2023/09/12 11:11:49;;;;;;;37.33;25.90;;;;;;;27.54;52.89;101425.09;4984206;28;20406;-34
2023/09/12 11:14:19;;;;;;;38.42;25.73;;;;;;;27.53;52.79;101421.50;4984883;28;20125;-34
2023/09/12 11:17:17;;;;;;;38.25;23.67;;;;;;;27.52;53.28;101422.56;4999685;28;20101;-34
2023/09/12 11:19:48;;;;;;;38.00;22.85;;;;;;;27.55;52.99;101434.94;4999263;28;20419;-34
2023/09/12 11:22:30;;;;;;;41.47;25.60;;;;;;;27.54;52.60;101434.09;4987377;28;20059;-35
2023/09/12 11:25:02;;;;;;;33.50;21.38;;;;;;;27.54;52.77;101434.09;5015544;28;20116;-35
2023/09/12 11:27:45;;;;;;;30.30;21.02;;;;;;;27.53;51.76;101420.69;4985101;28;20394;-35